sensor_id;sensor_type;location;lat;lon;timestamp;pressure;altitude;pressure_sealevel;temperature;humidity
58843;BME280;44614;54.356;10.100;2022-09-09T00:04:15;100604.41;;;14.04;100.00
58843;BME280;44614;54.356;10.100;2022-09-09T00:06:45;100590.84;;;14.03;100.00
58843;BME280;44614;54.356;10.100;2022-09-09T00:09:18;100599.97;;;14.03;100.00
58843;BME280;44614;54.356;10.100;2022-09-09T00:19:51;100591.44;;;14.05;100.00
58843;BME280;44614;54.356;10.100;2022-09-09T00:22:20;100595.28;;;14.04;100.00
58843;BME280;44614;54.356;10.100;2022-09-09T00:24:47;100582.06;;;14.06;100.00
58843;BME280;44614;54.356;10.100;2022-09-09T00:30:12;100581.47;;;14.04;100.00
58843;BME280;44614;54.356;10.100;2022-09-09T00:32:37;100586.41;;;14.02;100.00
58843;BME280;44614;54.356;10.100;2022-09-09T00:35:04;100582.00;;;14.01;100.00
58843;BME280;44614;54.356;10.100;2022-09-09T00:37:37;100574.53;;;14.01;100.00
58843;BME280;44614;54.356;10.100;2022-09-09T00:40:06;100572.84;;;14.00;100.00
58843;BME280;44614;54.356;10.100;2022-09-09T00:42:41;100572.00;;;14.00;100.00
58843;BME280;44614;54.356;10.100;2022-09-09T00:47:51;100576.38;;;13.96;100.00
58843;BME280;44614;54.356;10.100;2022-09-09T00:50:22;100573.88;;;13.94;100.00
58843;BME280;44614;54.356;10.100;2022-09-09T00:55:28;100581.88;;;13.96;100.00
58843;BME280;44614;54.356;10.100;2022-09-09T00:57:57;100585.47;;;13.96;100.00
58843;BME280;44614;54.356;10.100;2022-09-09T01:05:20;100577.53;;;14.00;100.00
58843;BME280;44614;54.356;10.100;2022-09-09T01:07:47;100578.38;;;14.00;100.00
58843;BME280;44614;54.356;10.100;2022-09-09T01:10:59;100576.72;;;13.99;100.00
58843;BME280;44614;54.356;10.100;2022-09-09T01:12:59;100582.00;;;14.01;100.00
58843;BME280;44614;54.356;10.100;2022-09-09T01:15:27;100573.72;;;14.01;100.00
58843;BME280;44614;54.356;10.100;2022-09-09T01:18:01;100568.19;;;14.01;100.00
58843;BME280;44614;54.356;10.100;2022-09-09T01:20:31;100562.06;;;13.99;100.00
58843;BME280;44614;54.356;10.100;2022-09-09T01:28:13;100573.38;;;13.97;100.00
58843;BME280;44614;54.356;10.100;2022-09-09T01:30:41;100580.81;;;13.97;100.00
58843;BME280;44614;54.356;10.100;2022-09-09T01:33:07;100573.38;;;13.97;100.00
58843;BME280;44614;54.356;10.100;2022-09-09T01:35:48;100532.22;;;13.79;100.00
58843;BME280;44614;54.356;10.100;2022-09-09T01:38:16;100570.34;;;13.99;100.00
58843;BME280;44614;54.356;10.100;2022-09-09T01:40:41;100564.84;;;13.99;100.00
58843;BME280;44614;54.356;10.100;2022-09-09T01:43:06;100556.06;;;14.02;100.00
58843;BME280;44614;54.356;10.100;2022-09-09T01:45:32;100564.34;;;14.02;100.00
58843;BME280;44614;54.356;10.100;2022-09-09T01:47:58;100564.34;;;14.02;100.00
58843;BME280;44614;54.356;10.100;2022-09-09T01:50:23;100569.03;;;14.01;100.00
58843;BME280;44614;54.356;10.100;2022-09-09T01:52:51;100569.84;;;14.02;100.00
58843;BME280;44614;54.356;10.100;2022-09-09T01:55:18;100579.81;;;14.03;100.00
58843;BME280;44614;54.356;10.100;2022-09-09T02:00:31;100586.75;;;14.05;100.00
58843;BME280;44614;54.356;10.100;2022-09-09T02:03:00;100582.91;;;14.06;100.00
58843;BME280;44614;54.356;10.100;2022-09-09T02:05:39;100585.66;;;14.06;100.00
58843;BME280;44614;54.356;10.100;2022-09-09T02:10:37;100583.72;;;14.07;100.00
58843;BME280;44614;54.356;10.100;2022-09-09T02:13:07;100579.88;;;14.08;100.00
58843;BME280;44614;54.356;10.100;2022-09-09T02:15:46;100580.47;;;14.10;100.00
58843;BME280;44614;54.356;10.100;2022-09-09T02:18:13;100580.47;;;14.10;100.00
58843;BME280;44614;54.356;10.100;2022-09-09T02:20:40;100583.22;;;14.10;100.00
58843;BME280;44614;54.356;10.100;2022-09-09T02:23:07;100582.13;;;14.11;100.00
58843;BME280;44614;54.356;10.100;2022-09-09T02:25:33;100582.41;;;14.09;100.00
58843;BME280;44614;54.356;10.100;2022-09-09T02:27:59;100581.31;;;14.10;100.00
58843;BME280;44614;54.356;10.100;2022-09-09T02:30:27;100576.59;;;14.11;100.00
58843;BME280;44614;54.356;10.100;2022-09-09T02:32:54;100586.00;;;14.10;100.00
58843;BME280;44614;54.356;10.100;2022-09-09T02:35:24;100584.06;;;14.10;100.00
58843;BME280;44614;54.356;10.100;2022-09-09T02:37:50;100575.78;;;14.10;100.00
58843;BME280;44614;54.356;10.100;2022-09-09T02:40:16;100583.81;;;14.12;100.00
58843;BME280;44614;54.356;10.100;2022-09-09T02:42:42;100580.19;;;14.11;100.00
58843;BME280;44614;54.356;10.100;2022-09-09T02:45:09;100587.41;;;14.12;100.00
58843;BME280;44614;54.356;10.100;2022-09-09T02:47:35;100589.34;;;14.12;100.00
58843;BME280;44614;54.356;10.100;2022-09-09T02:55:06;100588.75;;;14.10;100.00
58843;BME280;44614;54.356;10.100;2022-09-09T02:57:33;100587.91;;;14.09;100.00
58843;BME280;44614;54.356;10.100;2022-09-09T02:59:59;100587.09;;;14.09;100.00
58843;BME280;44614;54.356;10.100;2022-09-09T03:02:25;100581.78;;;14.07;100.00
58843;BME280;44614;54.356;10.100;2022-09-09T03:04:50;100591.78;;;14.08;100.00
58843;BME280;44614;54.356;10.100;2022-09-09T03:07:17;100586.50;;;14.07;100.00
58843;BME280;44614;54.356;10.100;2022-09-09T03:09:42;100582.06;;;14.06;100.00
58843;BME280;44614;54.356;10.100;2022-09-09T03:12:07;100589.50;;;14.05;100.00
58843;BME280;44614;54.356;10.100;2022-09-09T03:14:33;100590.63;;;14.04;100.00
58843;BME280;44614;54.356;10.100;2022-09-09T03:16:58;100584.75;;;14.01;100.00
58843;BME280;44614;54.356;10.100;2022-09-09T03:19:26;100586.41;;;14.02;100.00
58843;BME280;44614;54.356;10.100;2022-09-09T03:21:52;100577.53;;;14.00;100.00
58843;BME280;44614;54.356;10.100;2022-09-09T03:24:17;100584.75;;;14.01;100.00
58843;BME280;44614;54.356;10.100;2022-09-09T03:26:43;100589.19;;;14.02;100.00
58843;BME280;44614;54.356;10.100;2022-09-09T03:29:10;100595.78;;;14.01;100.00
58843;BME280;44614;54.356;10.100;2022-09-09T03:31:36;100593.53;;;13.98;100.00
58843;BME280;44614;54.356;10.100;2022-09-09T03:34:02;100597.41;;;13.97;100.00
58843;BME280;44614;54.356;10.100;2022-09-09T03:36:27;100594.63;;;13.97;100.00
58843;BME280;44614;54.356;10.100;2022-09-09T03:38:53;100599.81;;;13.93;100.00
58843;BME280;44614;54.356;10.100;2022-09-09T03:41:19;100600.66;;;13.94;100.00
58843;BME280;44614;54.356;10.100;2022-09-09T03:43:49;100592.09;;;13.95;100.00
58843;BME280;44614;54.356;10.100;2022-09-09T03:46:14;100592.94;;;13.96;100.00
58843;BME280;44614;54.356;10.100;2022-09-09T03:48:39;100596.78;;;13.95;100.00
58843;BME280;44614;54.356;10.100;2022-09-09T03:51:04;100592.38;;;13.94;100.00
58843;BME280;44614;54.356;10.100;2022-09-09T03:53:30;100599.56;;;13.95;100.00
58843;BME280;44614;54.356;10.100;2022-09-09T03:55:55;100597.63;;;13.95;100.00
58843;BME280;44614;54.356;10.100;2022-09-09T03:58:24;100595.13;;;13.94;100.00
58843;BME280;44614;54.356;10.100;2022-09-09T04:00:58;100592.59;;;13.92;100.00
58843;BME280;44614;54.356;10.100;2022-09-09T04:03:24;100586.25;;;13.92;100.00
58843;BME280;44614;54.356;10.100;2022-09-09T04:05:53;100594.19;;;13.88;100.00
58843;BME280;44614;54.356;10.100;2022-09-09T04:08:19;100585.06;;;13.87;100.00
58843;BME280;44614;54.356;10.100;2022-09-09T04:10:45;100582.81;;;13.84;100.00
58843;BME280;44614;54.356;10.100;2022-09-09T04:13:12;100589.44;;;13.83;100.00
58843;BME280;44614;54.356;10.100;2022-09-09T04:15:40;100590.75;;;13.81;100.00
58843;BME280;44614;54.356;10.100;2022-09-09T04:18:05;100586.09;;;13.81;100.00
58843;BME280;44614;54.356;10.100;2022-09-09T04:20:31;100590.25;;;13.84;100.00
58843;BME280;44614;54.356;10.100;2022-09-09T04:22:56;100591.69;;;13.86;100.00
58843;BME280;44614;54.356;10.100;2022-09-09T04:25:22;100596.38;;;13.86;100.00
58843;BME280;44614;54.356;10.100;2022-09-09T04:27:47;100599.16;;;13.86;100.00
58843;BME280;44614;54.356;10.100;2022-09-09T04:30:13;100598.88;;;13.87;100.00
58843;BME280;44614;54.356;10.100;2022-09-09T04:32:38;100599.22;;;13.91;100.00
58843;BME280;44614;54.356;10.100;2022-09-09T04:35:03;100597.28;;;13.92;100.00
58843;BME280;44614;54.356;10.100;2022-09-09T04:37:29;100603.31;;;13.88;100.00
58843;BME280;44614;54.356;10.100;2022-09-09T04:39:54;100605.72;;;13.85;100.00
58843;BME280;44614;54.356;10.100;2022-09-09T04:42:19;100600.47;;;13.83;100.00
58843;BME280;44614;54.356;10.100;2022-09-09T04:44:45;100606.59;;;13.85;100.00
58843;BME280;44614;54.356;10.100;2022-09-09T04:47:10;100606.00;;;13.83;100.00
58843;BME280;44614;54.356;10.100;2022-09-09T04:49:36;100614.28;;;13.83;100.00
58843;BME280;44614;54.356;10.100;2022-09-09T04:52:02;100610.94;;;13.81;100.00
58843;BME280;44614;54.356;10.100;2022-09-09T04:54:27;100609.84;;;13.82;100.00
58843;BME280;44614;54.356;10.100;2022-09-09T04:56:53;100610.94;;;13.81;100.00
58843;BME280;44614;54.356;10.100;2022-09-09T04:59:18;100605.41;;;13.81;100.00
58843;BME280;44614;54.356;10.100;2022-09-09T05:01:43;100602.66;;;13.81;100.00
58843;BME280;44614;54.356;10.100;2022-09-09T05:04:09;100611.50;;;13.83;100.00
58843;BME280;44614;54.356;10.100;2022-09-09T05:06:34;100618.69;;;13.84;100.00
58843;BME280;44614;54.356;10.100;2022-09-09T05:09:01;100611.50;;;13.83;100.00
58843;BME280;44614;54.356;10.100;2022-09-09T05:11:27;100620.88;;;13.82;100.00
58843;BME280;44614;54.356;10.100;2022-09-09T05:13:53;100619.22;;;13.81;100.00
58843;BME280;44614;54.356;10.100;2022-09-09T05:16:19;100623.66;;;13.82;100.00
58843;BME280;44614;54.356;10.100;2022-09-09T05:18:44;100639.59;;;13.80;100.00
58843;BME280;44614;54.356;10.100;2022-09-09T05:21:11;100633.50;;;13.78;100.00
58843;BME280;44614;54.356;10.100;2022-09-09T05:23:36;100644.06;;;13.81;100.00
58843;BME280;44614;54.356;10.100;2022-09-09T05:26:03;100642.97;;;13.82;100.00
58843;BME280;44614;54.356;10.100;2022-09-09T05:28:28;100650.75;;;13.85;100.00
58843;BME280;44614;54.356;10.100;2022-09-09T05:30:59;100638.63;;;13.86;100.00
58843;BME280;44614;54.356;10.100;2022-09-09T05:33:25;100644.97;;;13.87;100.00
58843;BME280;44614;54.356;10.100;2022-09-09T05:36:03;100643.88;;;13.88;100.00
58843;BME280;44614;54.356;10.100;2022-09-09T05:38:29;100649.75;;;13.92;100.00
58843;BME280;44614;54.356;10.100;2022-09-09T05:40:55;100645.66;;;13.94;100.00
58843;BME280;44614;54.356;10.100;2022-09-09T05:43:21;100643.72;;;13.95;100.00
58843;BME280;44614;54.356;10.100;2022-09-09T05:45:47;100639.88;;;13.96;100.00
58843;BME280;44614;54.356;10.100;2022-09-09T05:48:16;100656.19;;;13.97;100.00
58843;BME280;44614;54.356;10.100;2022-09-09T05:50:41;100647.91;;;13.97;100.00
58843;BME280;44614;54.356;10.100;2022-09-09T05:53:07;100654.75;;;13.95;100.00
58843;BME280;44614;54.356;10.100;2022-09-09T05:55:32;100647.09;;;13.97;100.00
58843;BME280;44614;54.356;10.100;2022-09-09T05:57:58;100653.50;;;14.02;100.00
58843;BME280;44614;54.356;10.100;2022-09-09T06:00:23;100649.44;;;14.05;100.00
58843;BME280;44614;54.356;10.100;2022-09-09T06:02:50;100649.44;;;14.05;100.00
58843;BME280;44614;54.356;10.100;2022-09-09T06:05:16;100655.19;;;14.03;100.00
58843;BME280;44614;54.356;10.100;2022-09-09T06:07:41;100649.31;;;14.00;100.00
58843;BME280;44614;54.356;10.100;2022-09-09T06:10:08;100651.84;;;14.01;100.00
58843;BME280;44614;54.356;10.100;2022-09-09T06:12:33;100642.47;;;14.02;100.00
58843;BME280;44614;54.356;10.100;2022-09-09T06:14:59;100646.66;;;14.05;100.00
58843;BME280;44614;54.356;10.100;2022-09-09T06:17:24;100662.69;;;14.08;100.00
58843;BME280;44614;54.356;10.100;2022-09-09T06:19:49;100671.31;;;14.11;100.00
58843;BME280;44614;54.356;10.100;2022-09-09T06:22:16;100673.84;;;14.13;100.00
58843;BME280;44614;54.356;10.100;2022-09-09T06:24:41;100666.66;;;14.12;100.00
58843;BME280;44614;54.356;10.100;2022-09-09T06:27:06;100673.25;;;14.11;100.00
58843;BME280;44614;54.356;10.100;2022-09-09T06:29:32;100669.44;;;14.12;100.00
58843;BME280;44614;54.356;10.100;2022-09-09T06:31:57;100673.59;;;14.14;100.00
58843;BME280;44614;54.356;10.100;2022-09-09T06:34:23;100676.97;;;14.17;100.00
58843;BME280;44614;54.356;10.100;2022-09-09T06:36:48;100669.56;;;14.22;100.00
58843;BME280;44614;54.356;10.100;2022-09-09T06:39:14;100678.78;;;14.28;100.00
58843;BME280;44614;54.356;10.100;2022-09-09T06:41:40;100678.88;;;14.33;100.00
58843;BME280;44614;54.356;10.100;2022-09-09T06:44:07;100678.09;;;14.37;100.00
58843;BME280;44614;54.356;10.100;2022-09-09T06:46:32;100675.69;;;14.41;100.00
58843;BME280;44614;54.356;10.100;2022-09-09T06:48:58;100678.53;;;14.46;100.00
58843;BME280;44614;54.356;10.100;2022-09-09T06:51:28;100676.97;;;14.50;100.00
58843;BME280;44614;54.356;10.100;2022-09-09T06:53:55;100680.56;;;14.51;100.00
58843;BME280;44614;54.356;10.100;2022-09-09T06:56:25;100676.97;;;14.50;100.00
58843;BME280;44614;54.356;10.100;2022-09-09T06:58:53;100676.78;;;14.57;100.00
58843;BME280;44614;54.356;10.100;2022-09-09T07:01:20;100677.09;;;14.60;100.00
58843;BME280;44614;54.356;10.100;2022-09-09T07:03:47;100688.59;;;14.69;100.00
58843;BME280;44614;54.356;10.100;2022-09-09T07:06:14;100683.13;;;14.74;100.00
58843;BME280;44614;54.356;10.100;2022-09-09T07:08:39;100668.34;;;14.85;100.00
58843;BME280;44614;54.356;10.100;2022-09-09T07:11:05;100673.44;;;14.94;100.00
58843;BME280;44614;54.356;10.100;2022-09-09T07:13:31;100675.94;;;14.95;100.00
58843;BME280;44614;54.356;10.100;2022-09-09T07:16:06;100673.31;;;15.05;100.00
58843;BME280;44614;54.356;10.100;2022-09-09T07:18:31;100673.19;;;15.17;100.00
58843;BME280;44614;54.356;10.100;2022-09-09T07:20:58;100670.03;;;15.30;100.00
58843;BME280;44614;54.356;10.100;2022-09-09T07:23:23;100677.66;;;15.45;100.00
58843;BME280;44614;54.356;10.100;2022-09-09T07:25:49;100676.09;;;15.54;100.00
58843;BME280;44614;54.356;10.100;2022-09-09T07:28:15;100669.63;;;15.66;100.00
58843;BME280;44614;54.356;10.100;2022-09-09T07:30:40;100668.94;;;15.80;100.00
58843;BME280;44614;54.356;10.100;2022-09-09T07:33:06;100667.34;;;15.90;100.00
58843;BME280;44614;54.356;10.100;2022-09-09T07:35:31;100667.16;;;15.96;100.00
58843;BME280;44614;54.356;10.100;2022-09-09T07:37:57;100677.47;;;16.06;100.00
58843;BME280;44614;54.356;10.100;2022-09-09T07:40:23;100677.59;;;16.21;100.00
58843;BME280;44614;54.356;10.100;2022-09-09T07:42:48;100676.03;;;16.36;100.00
58843;BME280;44614;54.356;10.100;2022-09-09T07:45:13;100680.06;;;16.55;100.00
58843;BME280;44614;54.356;10.100;2022-09-09T07:47:39;100683.97;;;16.59;97.93
58843;BME280;44614;54.356;10.100;2022-09-09T07:50:04;100679.53;;;16.58;96.67
58843;BME280;44614;54.356;10.100;2022-09-09T07:52:30;100685.69;;;16.65;96.19
58843;BME280;44614;54.356;10.100;2022-09-09T07:54:55;100686.53;;;16.66;95.58
58843;BME280;44614;54.356;10.100;2022-09-09T07:57:22;100685.66;;;16.60;94.61
58843;BME280;44614;54.356;10.100;2022-09-09T07:59:47;100613.81;;;16.11;93.92
58843;BME280;44614;54.356;10.100;2022-09-09T08:02:12;100684.44;;;16.46;94.13
58843;BME280;44614;54.356;10.100;2022-09-09T08:04:37;100686.13;;;16.47;94.52
58843;BME280;44614;54.356;10.100;2022-09-09T08:07:02;100690.84;;;16.51;94.13
58843;BME280;44614;54.356;10.100;2022-09-09T08:09:28;100689.28;;;16.61;94.36
58843;BME280;44614;54.356;10.100;2022-09-09T08:11:54;100689.69;;;16.79;94.34
58843;BME280;44614;54.356;10.100;2022-09-09T08:14:21;100693.91;;;16.87;92.79
58843;BME280;44614;54.356;10.100;2022-09-09T08:16:48;100691.97;;;16.93;92.78
58843;BME280;44614;54.356;10.100;2022-09-09T08:19:14;100686.44;;;16.98;91.70
58843;BME280;44614;54.356;10.100;2022-09-09T08:21:42;100691.16;;;16.92;91.54
58843;BME280;44614;54.356;10.100;2022-09-09T08:24:08;100691.22;;;17.02;92.74
58843;BME280;44614;54.356;10.100;2022-09-09T08:26:36;100682.31;;;17.00;91.49
58843;BME280;44614;54.356;10.100;2022-09-09T08:29:03;100679.31;;;17.12;92.01
58843;BME280;44614;54.356;10.100;2022-09-09T08:31:29;100682.44;;;17.21;91.70
58843;BME280;44614;54.356;10.100;2022-09-09T08:33:56;100685.25;;;17.36;90.78
58843;BME280;44614;54.356;10.100;2022-09-09T08:36:23;100691.66;;;17.47;90.59
58843;BME280;44614;54.356;10.100;2022-09-09T08:38:49;100692.81;;;17.56;90.42
58843;BME280;44614;54.356;10.100;2022-09-09T08:46:31;100700.69;;;17.90;88.30
58843;BME280;44614;54.356;10.100;2022-09-09T08:49:02;100703.75;;;17.88;87.98
58843;BME280;44614;54.356;10.100;2022-09-09T08:51:31;100707.38;;;17.99;88.28
58843;BME280;44614;54.356;10.100;2022-09-09T08:53:58;100705.72;;;18.03;87.21
58843;BME280;44614;54.356;10.100;2022-09-09T08:56:25;100704.63;;;18.09;86.67
58843;BME280;44614;54.356;10.100;2022-09-09T08:58:52;100708.50;;;18.18;86.83
58843;BME280;44614;54.356;10.100;2022-09-09T09:02:04;100706.00;;;18.27;87.09
58843;BME280;44614;54.356;10.100;2022-09-09T09:09:26;100717.41;;;18.36;87.43
58843;BME280;44614;54.356;10.100;2022-09-09T09:11:56;100719.06;;;18.37;86.04
58843;BME280;44614;54.356;10.100;2022-09-09T09:14:25;100722.13;;;18.25;86.44
58843;BME280;44614;54.356;10.100;2022-09-09T09:19:16;100718.53;;;18.24;87.08
58843;BME280;44614;54.356;10.100;2022-09-09T09:21:43;100721.03;;;18.36;86.93
58843;BME280;44614;54.356;10.100;2022-09-09T09:24:30;100725.16;;;18.39;86.67
58843;BME280;44614;54.356;10.100;2022-09-09T09:26:57;100724.66;;;18.47;86.40
58843;BME280;44614;54.356;10.100;2022-09-09T09:29:26;100724.34;;;18.59;86.67
58843;BME280;44614;54.356;10.100;2022-09-09T09:31:52;100724.06;;;18.75;86.63
58843;BME280;44614;54.356;10.100;2022-09-09T09:34:19;100726.28;;;18.94;85.06
58843;BME280;44614;54.356;10.100;2022-09-09T09:36:45;100724.50;;;19.29;82.72
58843;BME280;44614;54.356;10.100;2022-09-09T09:39:22;100723.03;;;19.41;82.62
58843;BME280;44614;54.356;10.100;2022-09-09T09:41:48;100724.66;;;19.58;81.40
58843;BME280;44614;54.356;10.100;2022-09-09T09:44:24;100722.66;;;19.68;78.96
58843;BME280;44614;54.356;10.100;2022-09-09T09:46:49;100718.59;;;19.95;79.77
58843;BME280;44614;54.356;10.100;2022-09-09T09:49:14;100720.19;;;20.06;78.80
58843;BME280;44614;54.356;10.100;2022-09-09T09:51:40;100718.84;;;20.04;78.33
58843;BME280;44614;54.356;10.100;2022-09-09T09:56:40;100714.13;;;19.99;76.30
58843;BME280;44614;54.356;10.100;2022-09-09T09:59:19;100708.00;;;19.97;78.15
58843;BME280;44614;54.356;10.100;2022-09-09T10:01:44;100715.81;;;20.00;77.80
58843;BME280;44614;54.356;10.100;2022-09-09T10:04:17;100721.28;;;20.10;74.76
58843;BME280;44614;54.356;10.100;2022-09-09T10:06:43;100721.53;;;20.14;75.21
58843;BME280;44614;54.356;10.100;2022-09-09T10:14:20;100715.56;;;20.31;75.48
58843;BME280;44614;54.356;10.100;2022-09-09T10:19:34;100727.13;;;20.14;74.30
58843;BME280;44614;54.356;10.100;2022-09-09T10:22:02;100717.34;;;20.16;75.00
58843;BME280;44614;54.356;10.100;2022-09-09T10:37:37;100722.38;;;20.83;73.15
58843;BME280;44614;54.356;10.100;2022-09-09T10:42:45;100710.03;;;21.13;71.93
58843;BME280;44614;54.356;10.100;2022-09-09T10:45:18;100706.34;;;21.17;71.79
58843;BME280;44614;54.356;10.100;2022-09-09T10:48:02;100713.47;;;21.29;70.13
58843;BME280;44614;54.356;10.100;2022-09-09T10:50:38;100709.09;;;21.23;69.68
58843;BME280;44614;54.356;10.100;2022-09-09T10:55:37;100710.88;;;21.13;67.62
58843;BME280;44614;54.356;10.100;2022-09-09T10:58:03;100708.72;;;21.05;68.42
58843;BME280;44614;54.356;10.100;2022-09-09T11:00:42;100712.06;;;21.07;68.79
58843;BME280;44614;54.356;10.100;2022-09-09T11:03:20;100714.97;;;20.97;69.71
58843;BME280;44614;54.356;10.100;2022-09-09T11:05:51;100719.44;;;20.69;69.06
58843;BME280;44614;54.356;10.100;2022-09-09T11:08:19;100715.59;;;20.65;70.90
58843;BME280;44614;54.356;10.100;2022-09-09T11:13:39;100720.34;;;20.64;69.73
58843;BME280;44614;54.356;10.100;2022-09-09T11:18:37;100709.50;;;20.58;71.36
58843;BME280;44614;54.356;10.100;2022-09-09T11:21:04;100710.13;;;20.79;70.57
58843;BME280;44614;54.356;10.100;2022-09-09T11:25:59;100715.03;;;21.16;68.24
58843;BME280;44614;54.356;10.100;2022-09-09T11:39:02;100728.56;;;21.95;60.52
58843;BME280;44614;54.356;10.100;2022-09-09T11:41:33;100722.44;;;21.93;60.85
58843;BME280;44614;54.356;10.100;2022-09-09T11:43:59;100726.75;;;22.04;62.97
58843;BME280;44614;54.356;10.100;2022-09-09T11:46:32;100715.88;;;22.02;61.75
58843;BME280;44614;54.356;10.100;2022-09-09T11:48:59;100730.00;;;22.11;62.70
58843;BME280;44614;54.356;10.100;2022-09-09T11:51:29;100726.38;;;22.10;62.74
58843;BME280;44614;54.356;10.100;2022-09-09T11:53:56;100727.69;;;22.18;61.30
58843;BME280;44614;54.356;10.100;2022-09-09T11:56:30;100722.84;;;22.24;62.66
58843;BME280;44614;54.356;10.100;2022-09-09T11:58:57;100724.72;;;22.28;61.85
58843;BME280;44614;54.356;10.100;2022-09-09T12:01:30;100724.88;;;22.18;58.85
58843;BME280;44614;54.356;10.100;2022-09-09T12:06:33;100739.38;;;22.20;61.25
58843;BME280;44614;54.356;10.100;2022-09-09T12:11:32;100731.66;;;22.12;59.49
58843;BME280;44614;54.356;10.100;2022-09-09T12:13:58;100736.06;;;22.18;60.97
58843;BME280;44614;54.356;10.100;2022-09-09T12:19:02;100729.22;;;22.05;60.58
58843;BME280;44614;54.356;10.100;2022-09-09T12:24:10;100734.00;;;22.43;61.31
58843;BME280;44614;54.356;10.100;2022-09-09T12:26:54;100727.97;;;22.68;58.98
58843;BME280;44614;54.356;10.100;2022-09-09T12:32:20;100723.63;;;22.76;57.50
58843;BME280;44614;54.356;10.100;2022-09-09T12:34:52;100731.59;;;22.69;58.53
58843;BME280;44614;54.356;10.100;2022-09-09T12:39:49;100737.47;;;22.53;58.24
58843;BME280;44614;54.356;10.100;2022-09-09T12:42:17;100728.78;;;22.36;58.53
58843;BME280;44614;54.356;10.100;2022-09-09T12:44:58;100735.25;;;22.50;58.21
58843;BME280;44614;54.356;10.100;2022-09-09T12:47:30;100736.84;;;22.56;59.09
58843;BME280;44614;54.356;10.100;2022-09-09T12:50:00;100728.59;;;23.39;58.32
58843;BME280;44614;54.356;10.100;2022-09-09T12:52:30;100729.00;;;24.10;54.46
58843;BME280;44614;54.356;10.100;2022-09-09T12:54:57;100734.84;;;24.36;51.85
58843;BME280;44614;54.356;10.100;2022-09-09T12:57:24;100721.84;;;24.40;51.40
58843;BME280;44614;54.356;10.100;2022-09-09T12:59:50;100713.84;;;24.78;52.63
58843;BME280;44614;54.356;10.100;2022-09-09T13:02:24;100710.59;;;24.85;49.60
58843;BME280;44614;54.356;10.100;2022-09-09T13:04:50;100703.53;;;25.36;52.44
58843;BME280;44614;54.356;10.100;2022-09-09T13:07:16;100690.09;;;25.90;50.20
58843;BME280;44614;54.356;10.100;2022-09-09T13:09:42;100693.25;;;26.06;49.96
58843;BME280;44614;54.356;10.100;2022-09-09T13:12:11;100692.94;;;26.08;50.12
58843;BME280;44614;54.356;10.100;2022-09-09T13:14:38;100696.72;;;26.38;49.66
58843;BME280;44614;54.356;10.100;2022-09-09T13:17:04;100685.28;;;26.52;46.84
58843;BME280;44614;54.356;10.100;2022-09-09T13:19:31;100690.81;;;26.95;47.54
58843;BME280;44614;54.356;10.100;2022-09-09T13:21:57;100685.63;;;27.06;45.18
58843;BME280;44614;54.356;10.100;2022-09-09T13:24:27;100687.81;;;27.00;45.66
58843;BME280;44614;54.356;10.100;2022-09-09T13:27:04;100692.25;;;27.10;44.67
58843;BME280;44614;54.356;10.100;2022-09-09T13:29:30;100696.09;;;26.96;42.80
58843;BME280;44614;54.356;10.100;2022-09-09T13:32:05;100686.63;;;26.54;43.56
58843;BME280;44614;54.356;10.100;2022-09-09T13:34:34;100695.00;;;26.80;45.81
58843;BME280;44614;54.356;10.100;2022-09-09T13:37:03;100692.66;;;26.82;46.08
58843;BME280;44614;54.356;10.100;2022-09-09T13:39:31;100691.38;;;26.80;42.84
58843;BME280;44614;54.356;10.100;2022-09-09T13:41:57;100693.59;;;26.31;45.98
58843;BME280;44614;54.356;10.100;2022-09-09T13:46:58;100691.28;;;26.24;46.44
58843;BME280;44614;54.356;10.100;2022-09-09T13:49:24;100679.34;;;26.01;46.47
58843;BME280;44614;54.356;10.100;2022-09-09T13:52:02;100678.81;;;25.73;44.98
58843;BME280;44614;54.356;10.100;2022-09-09T13:54:27;100680.38;;;25.88;47.24
58843;BME280;44614;54.356;10.100;2022-09-09T13:56:53;100676.16;;;25.68;47.16
58843;BME280;44614;54.356;10.100;2022-09-09T13:59:20;100676.19;;;25.76;47.80
58843;BME280;44614;54.356;10.100;2022-09-09T14:01:46;100688.47;;;26.07;47.49
58843;BME280;44614;54.356;10.100;2022-09-09T14:04:11;100689.63;;;26.14;45.56
58843;BME280;44614;54.356;10.100;2022-09-09T14:06:37;100684.13;;;25.74;45.30
58843;BME280;44614;54.356;10.100;2022-09-09T14:09:03;100685.75;;;25.67;44.74
58843;BME280;44614;54.356;10.100;2022-09-09T14:11:28;100689.69;;;25.48;46.69
58843;BME280;44614;54.356;10.100;2022-09-09T14:13:53;100694.06;;;25.72;45.91
58843;BME280;44614;54.356;10.100;2022-09-09T14:16:18;100685.81;;;25.84;47.29
58843;BME280;44614;54.356;10.100;2022-09-09T14:18:45;100679.03;;;26.11;46.21
58843;BME280;44614;54.356;10.100;2022-09-09T14:21:11;100684.66;;;26.20;46.30
58843;BME280;44614;54.356;10.100;2022-09-09T14:23:36;100683.00;;;25.93;44.75
58843;BME280;44614;54.356;10.100;2022-09-09T14:26:03;100680.19;;;26.01;47.30
58843;BME280;44614;54.356;10.100;2022-09-09T14:28:28;100678.69;;;26.13;45.65
58843;BME280;44614;54.356;10.100;2022-09-09T14:30:54;100674.22;;;25.94;46.33
58843;BME280;44614;54.356;10.100;2022-09-09T14:33:19;100679.44;;;25.52;46.17
58843;BME280;44614;54.356;10.100;2022-09-09T14:35:45;100669.09;;;25.22;47.44